sensor_id;sensor_type;location;lat;lon;timestamp;temperature;humidity
10968;DHT22;5536;49.602;10.980;2023-08-06T00:00:28;16.20;99.90
10968;DHT22;5536;49.602;10.980;2023-08-06T00:02:55;16.20;99.90
10968;DHT22;5536;49.602;10.980;2023-08-06T00:05:23;16.10;99.90
10968;DHT22;5536;49.602;10.980;2023-08-06T00:07:50;16.10;99.90
10968;DHT22;5536;49.602;10.980;2023-08-06T00:10:19;16.00;99.90
10968;DHT22;5536;49.602;10.980;2023-08-06T00:12:46;16.00;99.90
10968;DHT22;5536;49.602;10.980;2023-08-06T00:15:14;15.90;99.90
10968;DHT22;5536;49.602;10.980;2023-08-06T00:17:41;15.90;99.90
10968;DHT22;5536;49.602;10.980;2023-08-06T00:20:08;15.70;99.90
10968;DHT22;5536;49.602;10.980;2023-08-06T00:22:37;15.60;99.90
10968;DHT22;5536;49.602;10.980;2023-08-06T00:25:05;15.50;99.90
10968;DHT22;5536;49.602;10.980;2023-08-06T00:27:33;15.50;99.90
10968;DHT22;5536;49.602;10.980;2023-08-06T00:30:00;15.40;99.90
10968;DHT22;5536;49.602;10.980;2023-08-06T00:32:28;15.40;99.90
10968;DHT22;5536;49.602;10.980;2023-08-06T00:34:55;15.40;99.90
10968;DHT22;5536;49.602;10.980;2023-08-06T00:37:22;15.40;99.90
10968;DHT22;5536;49.602;10.980;2023-08-06T00:39:49;15.30;99.90
10968;DHT22;5536;49.602;10.980;2023-08-06T00:42:16;15.40;99.90
10968;DHT22;5536;49.602;10.980;2023-08-06T00:44:47;15.40;99.90
10968;DHT22;5536;49.602;10.980;2023-08-06T00:47:15;15.30;99.90
10968;DHT22;5536;49.602;10.980;2023-08-06T00:49:42;15.30;99.90
10968;DHT22;5536;49.602;10.980;2023-08-06T00:52:10;15.20;99.90
10968;DHT22;5536;49.602;10.980;2023-08-06T00:54:39;15.20;99.90
10968;DHT22;5536;49.602;10.980;2023-08-06T00:57:07;15.20;99.90
10968;DHT22;5536;49.602;10.980;2023-08-06T00:59:35;15.10;99.90
10968;DHT22;5536;49.602;10.980;2023-08-06T01:02:03;15.20;99.90
10968;DHT22;5536;49.602;10.980;2023-08-06T01:04:30;15.40;99.90
10968;DHT22;5536;49.602;10.980;2023-08-06T01:07:06;15.40;99.90
10968;DHT22;5536;49.602;10.980;2023-08-06T01:09:45;15.40;99.90
10968;DHT22;5536;49.602;10.980;2023-08-06T01:12:21;15.40;99.90
10968;DHT22;5536;49.602;10.980;2023-08-06T01:14:57;15.40;99.90
10968;DHT22;5536;49.602;10.980;2023-08-06T01:17:30;15.40;99.90
10968;DHT22;5536;49.602;10.980;2023-08-06T01:19:57;15.40;99.90
10968;DHT22;5536;49.602;10.980;2023-08-06T01:22:25;15.30;99.90
10968;DHT22;5536;49.602;10.980;2023-08-06T01:24:53;15.30;99.90
10968;DHT22;5536;49.602;10.980;2023-08-06T01:27:26;15.20;99.90
10968;DHT22;5536;49.602;10.980;2023-08-06T01:30:01;15.30;99.90
10968;DHT22;5536;49.602;10.980;2023-08-06T01:32:32;15.30;99.90
10968;DHT22;5536;49.602;10.980;2023-08-06T01:35:00;15.40;99.90
10968;DHT22;5536;49.602;10.980;2023-08-06T01:37:31;15.30;99.90
10968;DHT22;5536;49.602;10.980;2023-08-06T01:39:58;15.30;99.90
10968;DHT22;5536;49.602;10.980;2023-08-06T01:42:25;15.30;99.90
10968;DHT22;5536;49.602;10.980;2023-08-06T01:44:52;15.40;99.90
10968;DHT22;5536;49.602;10.980;2023-08-06T01:47:19;15.50;99.90
10968;DHT22;5536;49.602;10.980;2023-08-06T01:49:46;15.50;99.90
10968;DHT22;5536;49.602;10.980;2023-08-06T01:52:13;15.40;99.90
10968;DHT22;5536;49.602;10.980;2023-08-06T01:54:41;15.20;99.90
10968;DHT22;5536;49.602;10.980;2023-08-06T01:57:08;15.10;99.90
10968;DHT22;5536;49.602;10.980;2023-08-06T01:59:35;15.00;99.90
10968;DHT22;5536;49.602;10.980;2023-08-06T02:02:03;15.10;99.90
10968;DHT22;5536;49.602;10.980;2023-08-06T02:04:30;15.20;99.90
10968;DHT22;5536;49.602;10.980;2023-08-06T02:06:57;15.30;99.90
10968;DHT22;5536;49.602;10.980;2023-08-06T02:09:24;15.30;99.90
10968;DHT22;5536;49.602;10.980;2023-08-06T02:11:52;15.40;99.90
10968;DHT22;5536;49.602;10.980;2023-08-06T02:14:19;15.40;99.90
10968;DHT22;5536;49.602;10.980;2023-08-06T02:16:46;15.40;99.90
10968;DHT22;5536;49.602;10.980;2023-08-06T02:19:14;15.40;99.90
10968;DHT22;5536;49.602;10.980;2023-08-06T02:21:41;15.20;99.90
10968;DHT22;5536;49.602;10.980;2023-08-06T02:24:08;15.30;99.90
10968;DHT22;5536;49.602;10.980;2023-08-06T02:26:35;15.20;99.90
10968;DHT22;5536;49.602;10.980;2023-08-06T02:29:03;15.10;99.90
10968;DHT22;5536;49.602;10.980;2023-08-06T02:31:30;15.00;99.90
10968;DHT22;5536;49.602;10.980;2023-08-06T02:33:57;15.00;99.90
10968;DHT22;5536;49.602;10.980;2023-08-06T02:36:25;15.10;99.90
10968;DHT22;5536;49.602;10.980;2023-08-06T02:38:55;15.10;99.90
10968;DHT22;5536;49.602;10.980;2023-08-06T02:41:22;15.20;99.90
10968;DHT22;5536;49.602;10.980;2023-08-06T02:43:49;15.30;99.90
10968;DHT22;5536;49.602;10.980;2023-08-06T02:46:17;15.20;99.90
10968;DHT22;5536;49.602;10.980;2023-08-06T02:48:45;15.20;99.90
10968;DHT22;5536;49.602;10.980;2023-08-06T02:51:12;15.20;99.90
10968;DHT22;5536;49.602;10.980;2023-08-06T02:53:39;15.10;99.90
10968;DHT22;5536;49.602;10.980;2023-08-06T02:56:06;15.00;99.90
10968;DHT22;5536;49.602;10.980;2023-08-06T02:58:33;15.10;99.90
10968;DHT22;5536;49.602;10.980;2023-08-06T03:01:01;15.20;99.90
10968;DHT22;5536;49.602;10.980;2023-08-06T03:03:30;15.20;99.90
10968;DHT22;5536;49.602;10.980;2023-08-06T03:05:58;15.10;99.90
10968;DHT22;5536;49.602;10.980;2023-08-06T03:08:25;15.20;99.90
10968;DHT22;5536;49.602;10.980;2023-08-06T03:10:52;15.20;99.90
10968;DHT22;5536;49.602;10.980;2023-08-06T03:13:19;15.10;99.90
10968;DHT22;5536;49.602;10.980;2023-08-06T03:15:53;15.10;99.90
10968;DHT22;5536;49.602;10.980;2023-08-06T03:18:20;15.10;99.90
10968;DHT22;5536;49.602;10.980;2023-08-06T03:20:49;15.00;99.90
10968;DHT22;5536;49.602;10.980;2023-08-06T03:23:16;14.90;99.90
10968;DHT22;5536;49.602;10.980;2023-08-06T03:25:43;14.90;99.90
10968;DHT22;5536;49.602;10.980;2023-08-06T03:28:10;14.90;99.90
10968;DHT22;5536;49.602;10.980;2023-08-06T03:30:37;14.80;99.90
10968;DHT22;5536;49.602;10.980;2023-08-06T03:33:04;14.90;99.90
10968;DHT22;5536;49.602;10.980;2023-08-06T03:35:31;14.80;99.90
10968;DHT22;5536;49.602;10.980;2023-08-06T03:38:00;14.70;99.90
10968;DHT22;5536;49.602;10.980;2023-08-06T03:40:28;14.60;99.90
10968;DHT22;5536;49.602;10.980;2023-08-06T03:42:55;14.60;99.90
10968;DHT22;5536;49.602;10.980;2023-08-06T03:45:22;14.50;99.90
10968;DHT22;5536;49.602;10.980;2023-08-06T03:47:49;14.50;99.90
10968;DHT22;5536;49.602;10.980;2023-08-06T03:50:16;14.40;99.90
10968;DHT22;5536;49.602;10.980;2023-08-06T03:52:43;14.40;99.90
10968;DHT22;5536;49.602;10.980;2023-08-06T03:55:11;14.30;99.90
10968;DHT22;5536;49.602;10.980;2023-08-06T03:57:39;14.20;99.90
10968;DHT22;5536;49.602;10.980;2023-08-06T04:00:07;14.30;99.90
10968;DHT22;5536;49.602;10.980;2023-08-06T04:02:34;14.20;99.90
10968;DHT22;5536;49.602;10.980;2023-08-06T04:05:01;14.20;99.90
10968;DHT22;5536;49.602;10.980;2023-08-06T04:07:28;14.10;99.90
10968;DHT22;5536;49.602;10.980;2023-08-06T04:09:57;14.10;99.90
10968;DHT22;5536;49.602;10.980;2023-08-06T04:12:26;14.10;99.90
10968;DHT22;5536;49.602;10.980;2023-08-06T04:14:53;14.10;99.90
10968;DHT22;5536;49.602;10.980;2023-08-06T04:17:21;14.10;99.90
10968;DHT22;5536;49.602;10.980;2023-08-06T04:19:51;14.10;99.90
10968;DHT22;5536;49.602;10.980;2023-08-06T04:22:19;14.00;99.90
10968;DHT22;5536;49.602;10.980;2023-08-06T04:24:46;14.10;99.90
10968;DHT22;5536;49.602;10.980;2023-08-06T04:27:14;14.10;99.90
10968;DHT22;5536;49.602;10.980;2023-08-06T04:29:43;14.10;99.90
10968;DHT22;5536;49.602;10.980;2023-08-06T04:32:10;14.10;99.90
10968;DHT22;5536;49.602;10.980;2023-08-06T04:34:37;14.10;99.90
10968;DHT22;5536;49.602;10.980;2023-08-06T04:37:05;14.10;99.90
10968;DHT22;5536;49.602;10.980;2023-08-06T04:39:32;14.20;99.90
10968;DHT22;5536;49.602;10.980;2023-08-06T04:41:59;14.20;99.90
10968;DHT22;5536;49.602;10.980;2023-08-06T04:44:26;14.20;99.90
10968;DHT22;5536;49.602;10.980;2023-08-06T04:46:55;14.40;99.90
10968;DHT22;5536;49.602;10.980;2023-08-06T04:49:22;14.50;99.90
10968;DHT22;5536;49.602;10.980;2023-08-06T04:51:49;14.50;99.90
10968;DHT22;5536;49.602;10.980;2023-08-06T04:54:16;14.40;99.90
10968;DHT22;5536;49.602;10.980;2023-08-06T04:56:44;14.30;99.90
10968;DHT22;5536;49.602;10.980;2023-08-06T04:59:11;14.30;99.90
10968;DHT22;5536;49.602;10.980;2023-08-06T05:01:38;14.40;99.90
10968;DHT22;5536;49.602;10.980;2023-08-06T05:04:07;14.50;99.90
10968;DHT22;5536;49.602;10.980;2023-08-06T05:06:34;14.50;99.90
10968;DHT22;5536;49.602;10.980;2023-08-06T05:09:03;14.50;99.90
10968;DHT22;5536;49.602;10.980;2023-08-06T05:11:31;14.50;99.90
10968;DHT22;5536;49.602;10.980;2023-08-06T05:13:59;14.60;99.90
10968;DHT22;5536;49.602;10.980;2023-08-06T05:16:26;14.60;99.90
10968;DHT22;5536;49.602;10.980;2023-08-06T05:18:54;14.60;99.90
10968;DHT22;5536;49.602;10.980;2023-08-06T05:21:22;14.60;99.90
10968;DHT22;5536;49.602;10.980;2023-08-06T05:23:50;14.60;99.90
10968;DHT22;5536;49.602;10.980;2023-08-06T05:26:17;14.70;99.90
10968;DHT22;5536;49.602;10.980;2023-08-06T05:28:45;14.70;99.90
10968;DHT22;5536;49.602;10.980;2023-08-06T05:31:12;14.70;99.90
10968;DHT22;5536;49.602;10.980;2023-08-06T05:33:39;14.70;99.90
10968;DHT22;5536;49.602;10.980;2023-08-06T05:36:06;14.80;99.90
10968;DHT22;5536;49.602;10.980;2023-08-06T05:38:35;14.80;99.90
10968;DHT22;5536;49.602;10.980;2023-08-06T05:41:02;14.80;99.90
10968;DHT22;5536;49.602;10.980;2023-08-06T05:43:29;14.80;99.90
10968;DHT22;5536;49.602;10.980;2023-08-06T05:45:56;14.80;99.90
10968;DHT22;5536;49.602;10.980;2023-08-06T05:48:24;14.80;99.90
10968;DHT22;5536;49.602;10.980;2023-08-06T05:50:54;14.80;99.90
10968;DHT22;5536;49.602;10.980;2023-08-06T05:53:21;14.80;99.90
10968;DHT22;5536;49.602;10.980;2023-08-06T05:55:49;14.80;99.90
10968;DHT22;5536;49.602;10.980;2023-08-06T05:58:17;14.70;99.90
10968;DHT22;5536;49.602;10.980;2023-08-06T06:00:45;14.70;99.90
10968;DHT22;5536;49.602;10.980;2023-08-06T06:03:12;14.70;99.90
10968;DHT22;5536;49.602;10.980;2023-08-06T06:05:40;14.80;99.90
10968;DHT22;5536;49.602;10.980;2023-08-06T06:08:08;14.80;99.90
10968;DHT22;5536;49.602;10.980;2023-08-06T06:10:35;14.80;99.90
10968;DHT22;5536;49.602;10.980;2023-08-06T06:13:03;14.90;99.90
10968;DHT22;5536;49.602;10.980;2023-08-06T06:15:31;15.00;99.90
10968;DHT22;5536;49.602;10.980;2023-08-06T06:17:58;15.20;99.90
10968;DHT22;5536;49.602;10.980;2023-08-06T06:20:25;15.30;99.90
10968;DHT22;5536;49.602;10.980;2023-08-06T06:22:52;15.30;99.90
10968;DHT22;5536;49.602;10.980;2023-08-06T06:25:19;15.30;99.90
10968;DHT22;5536;49.602;10.980;2023-08-06T06:27:46;15.30;99.90
10968;DHT22;5536;49.602;10.980;2023-08-06T06:30:14;15.40;99.90
10968;DHT22;5536;49.602;10.980;2023-08-06T06:32:42;15.40;99.90
10968;DHT22;5536;49.602;10.980;2023-08-06T06:35:09;15.40;99.90
10968;DHT22;5536;49.602;10.980;2023-08-06T06:37:36;15.40;99.90
10968;DHT22;5536;49.602;10.980;2023-08-06T06:40:03;15.50;99.90
10968;DHT22;5536;49.602;10.980;2023-08-06T06:42:30;15.40;99.90
10968;DHT22;5536;49.602;10.980;2023-08-06T06:44:57;15.50;99.90
10968;DHT22;5536;49.602;10.980;2023-08-06T06:47:26;15.50;99.90
10968;DHT22;5536;49.602;10.980;2023-08-06T06:49:53;15.50;99.90
10968;DHT22;5536;49.602;10.980;2023-08-06T06:52:20;15.50;99.90
10968;DHT22;5536;49.602;10.980;2023-08-06T06:54:47;15.50;99.90
10968;DHT22;5536;49.602;10.980;2023-08-06T06:57:14;15.50;99.90
10968;DHT22;5536;49.602;10.980;2023-08-06T06:59:41;15.40;99.90
10968;DHT22;5536;49.602;10.980;2023-08-06T07:02:08;15.40;99.90
10968;DHT22;5536;49.602;10.980;2023-08-06T07:04:37;15.50;99.90
10968;DHT22;5536;49.602;10.980;2023-08-06T07:07:04;15.50;99.90
10968;DHT22;5536;49.602;10.980;2023-08-06T07:09:32;15.50;99.90
10968;DHT22;5536;49.602;10.980;2023-08-06T07:12:00;15.60;99.90
10968;DHT22;5536;49.602;10.980;2023-08-06T07:14:27;15.70;99.90
10968;DHT22;5536;49.602;10.980;2023-08-06T07:16:55;15.90;99.90
10968;DHT22;5536;49.602;10.980;2023-08-06T07:19:22;16.00;99.90
10968;DHT22;5536;49.602;10.980;2023-08-06T07:21:51;16.10;99.90
10968;DHT22;5536;49.602;10.980;2023-08-06T07:24:18;16.10;99.90
10968;DHT22;5536;49.602;10.980;2023-08-06T07:26:45;16.10;99.90
10968;DHT22;5536;49.602;10.980;2023-08-06T07:29:12;16.10;99.90
10968;DHT22;5536;49.602;10.980;2023-08-06T07:31:45;16.20;99.90
10968;DHT22;5536;49.602;10.980;2023-08-06T07:34:12;16.20;99.90
10968;DHT22;5536;49.602;10.980;2023-08-06T07:36:39;16.40;99.90
10968;DHT22;5536;49.602;10.980;2023-08-06T07:39:08;16.40;99.90
10968;DHT22;5536;49.602;10.980;2023-08-06T07:41:35;16.40;99.90
10968;DHT22;5536;49.602;10.980;2023-08-06T07:44:02;16.40;99.90
10968;DHT22;5536;49.602;10.980;2023-08-06T07:46:29;16.50;99.90
10968;DHT22;5536;49.602;10.980;2023-08-06T07:48:57;16.50;99.90
10968;DHT22;5536;49.602;10.980;2023-08-06T07:51:24;16.60;99.90
10968;DHT22;5536;49.602;10.980;2023-08-06T07:53:52;16.70;99.90
10968;DHT22;5536;49.602;10.980;2023-08-06T07:56:21;16.60;99.90
10968;DHT22;5536;49.602;10.980;2023-08-06T07:58:48;16.80;99.90
10968;DHT22;5536;49.602;10.980;2023-08-06T08:01:15;16.80;99.90
10968;DHT22;5536;49.602;10.980;2023-08-06T08:03:42;17.00;99.90
10968;DHT22;5536;49.602;10.980;2023-08-06T08:06:09;17.30;99.90
10968;DHT22;5536;49.602;10.980;2023-08-06T08:08:37;17.50;99.90
10968;DHT22;5536;49.602;10.980;2023-08-06T08:11:05;17.40;99.90
10968;DHT22;5536;49.602;10.980;2023-08-06T08:13:34;17.20;99.90
10968;DHT22;5536;49.602;10.980;2023-08-06T08:16:01;17.20;99.90
10968;DHT22;5536;49.602;10.980;2023-08-06T08:18:28;17.00;99.90
10968;DHT22;5536;49.602;10.980;2023-08-06T08:20:57;16.80;99.90
10968;DHT22;5536;49.602;10.980;2023-08-06T08:23:24;16.70;99.90
10968;DHT22;5536;49.602;10.980;2023-08-06T08:25:51;16.50;99.90
10968;DHT22;5536;49.602;10.980;2023-08-06T08:28:18;16.60;99.90
10968;DHT22;5536;49.602;10.980;2023-08-06T08:30:47;16.80;99.90
10968;DHT22;5536;49.602;10.980;2023-08-06T08:33:14;17.00;99.90
10968;DHT22;5536;49.602;10.980;2023-08-06T08:35:41;17.20;99.90
10968;DHT22;5536;49.602;10.980;2023-08-06T08:38:09;17.30;99.90
10968;DHT22;5536;49.602;10.980;2023-08-06T08:40:42;17.20;99.90
10968;DHT22;5536;49.602;10.980;2023-08-06T08:43:11;17.20;99.90
10968;DHT22;5536;49.602;10.980;2023-08-06T08:45:42;17.00;99.90
10968;DHT22;5536;49.602;10.980;2023-08-06T08:48:16;17.00;99.90
10968;DHT22;5536;49.602;10.980;2023-08-06T08:50:45;17.00;99.90
10968;DHT22;5536;49.602;10.980;2023-08-06T08:53:14;17.00;99.90
10968;DHT22;5536;49.602;10.980;2023-08-06T08:55:43;17.10;99.90
10968;DHT22;5536;49.602;10.980;2023-08-06T08:58:10;17.00;99.90
10968;DHT22;5536;49.602;10.980;2023-08-06T09:00:38;16.90;99.90
10968;DHT22;5536;49.602;10.980;2023-08-06T09:03:06;17.20;99.90
10968;DHT22;5536;49.602;10.980;2023-08-06T09:05:35;17.30;99.90
10968;DHT22;5536;49.602;10.980;2023-08-06T09:08:04;17.10;99.90
10968;DHT22;5536;49.602;10.980;2023-08-06T09:10:31;17.10;99.90
10968;DHT22;5536;49.602;10.980;2023-08-06T09:12:59;17.40;99.90
10968;DHT22;5536;49.602;10.980;2023-08-06T09:15:27;17.40;99.90
10968;DHT22;5536;49.602;10.980;2023-08-06T09:17:55;17.40;99.90
10968;DHT22;5536;49.602;10.980;2023-08-06T09:20:22;17.50;99.90
10968;DHT22;5536;49.602;10.980;2023-08-06T09:22:54;17.50;99.90
10968;DHT22;5536;49.602;10.980;2023-08-06T09:25:22;17.20;99.90
10968;DHT22;5536;49.602;10.980;2023-08-06T09:27:51;17.20;99.90
10968;DHT22;5536;49.602;10.980;2023-08-06T09:30:29;17.30;99.90
10968;DHT22;5536;49.602;10.980;2023-08-06T09:32:57;17.50;99.90
10968;DHT22;5536;49.602;10.980;2023-08-06T09:35:27;17.40;99.90
10968;DHT22;5536;49.602;10.980;2023-08-06T09:37:55;17.30;99.90
10968;DHT22;5536;49.602;10.980;2023-08-06T09:40:27;17.10;99.90
10968;DHT22;5536;49.602;10.980;2023-08-06T09:42:54;17.40;99.90
10968;DHT22;5536;49.602;10.980;2023-08-06T09:45:22;17.40;99.90
10968;DHT22;5536;49.602;10.980;2023-08-06T09:47:49;17.30;99.90
10968;DHT22;5536;49.602;10.980;2023-08-06T09:50:17;17.30;99.90
10968;DHT22;5536;49.602;10.980;2023-08-06T09:52:46;17.40;99.90
10968;DHT22;5536;49.602;10.980;2023-08-06T09:55:15;17.50;99.90
10968;DHT22;5536;49.602;10.980;2023-08-06T09:57:43;17.60;99.90
10968;DHT22;5536;49.602;10.980;2023-08-06T10:00:11;17.60;99.90
10968;DHT22;5536;49.602;10.980;2023-08-06T10:02:39;17.80;99.90
10968;DHT22;5536;49.602;10.980;2023-08-06T10:05:07;18.00;99.90
10968;DHT22;5536;49.602;10.980;2023-08-06T10:07:35;18.00;99.90
10968;DHT22;5536;49.602;10.980;2023-08-06T10:10:05;17.80;99.90
10968;DHT22;5536;49.602;10.980;2023-08-06T10:12:37;17.70;99.90
10968;DHT22;5536;49.602;10.980;2023-08-06T10:15:10;17.60;99.90
10968;DHT22;5536;49.602;10.980;2023-08-06T10:17:38;17.70;99.90
10968;DHT22;5536;49.602;10.980;2023-08-06T10:20:07;17.80;99.90
10968;DHT22;5536;49.602;10.980;2023-08-06T10:22:34;17.80;99.90
10968;DHT22;5536;49.602;10.980;2023-08-06T10:25:02;17.50;99.90
10968;DHT22;5536;49.602;10.980;2023-08-06T10:27:34;17.80;99.90
10968;DHT22;5536;49.602;10.980;2023-08-06T10:30:21;18.20;99.90
10968;DHT22;5536;49.602;10.980;2023-08-06T10:32:48;18.50;99.90
10968;DHT22;5536;49.602;10.980;2023-08-06T10:35:30;18.50;99.90
10968;DHT22;5536;49.602;10.980;2023-08-06T10:38:03;18.70;99.90
10968;DHT22;5536;49.602;10.980;2023-08-06T10:40:31;18.30;99.90
10968;DHT22;5536;49.602;10.980;2023-08-06T10:43:04;18.30;99.90
10968;DHT22;5536;49.602;10.980;2023-08-06T10:45:37;18.30;99.90
10968;DHT22;5536;49.602;10.980;2023-08-06T10:48:05;18.20;99.90
10968;DHT22;5536;49.602;10.980;2023-08-06T10:50:32;18.30;99.90
10968;DHT22;5536;49.602;10.980;2023-08-06T10:53:04;18.60;99.90
10968;DHT22;5536;49.602;10.980;2023-08-06T10:55:32;18.90;99.90
10968;DHT22;5536;49.602;10.980;2023-08-06T10:57:59;19.20;99.90
10968;DHT22;5536;49.602;10.980;2023-08-06T11:00:27;19.00;99.90
10968;DHT22;5536;49.602;10.980;2023-08-06T11:02:54;18.90;99.90
10968;DHT22;5536;49.602;10.980;2023-08-06T11:05:22;19.20;99.90
10968;DHT22;5536;49.602;10.980;2023-08-06T11:07:49;19.20;99.90
10968;DHT22;5536;49.602;10.980;2023-08-06T11:10:17;19.20;99.90
10968;DHT22;5536;49.602;10.980;2023-08-06T11:12:44;18.90;99.90
10968;DHT22;5536;49.602;10.980;2023-08-06T11:15:11;18.60;99.90
10968;DHT22;5536;49.602;10.980;2023-08-06T11:17:40;18.70;99.90
10968;DHT22;5536;49.602;10.980;2023-08-06T11:20:09;18.80;99.90
10968;DHT22;5536;49.602;10.980;2023-08-06T11:22:37;18.80;99.90
10968;DHT22;5536;49.602;10.980;2023-08-06T11:25:06;18.90;99.90
10968;DHT22;5536;49.602;10.980;2023-08-06T11:27:33;19.00;99.90
10968;DHT22;5536;49.602;10.980;2023-08-06T11:30:00;19.30;99.90
10968;DHT22;5536;49.602;10.980;2023-08-06T11:32:27;19.50;99.90
10968;DHT22;5536;49.602;10.980;2023-08-06T11:34:56;20.00;99.90
10968;DHT22;5536;49.602;10.980;2023-08-06T11:37:23;19.40;99.90
10968;DHT22;5536;49.602;10.980;2023-08-06T11:39:51;19.10;99.90
10968;DHT22;5536;49.602;10.980;2023-08-06T11:42:19;18.70;99.90
10968;DHT22;5536;49.602;10.980;2023-08-06T11:44:46;18.40;99.90
10968;DHT22;5536;49.602;10.980;2023-08-06T11:47:15;19.20;99.90
10968;DHT22;5536;49.602;10.980;2023-08-06T11:49:44;20.00;99.90
10968;DHT22;5536;49.602;10.980;2023-08-06T11:52:18;20.90;99.90
10968;DHT22;5536;49.602;10.980;2023-08-06T11:54:47;21.30;99.90
10968;DHT22;5536;49.602;10.980;2023-08-06T11:57:15;21.70;99.90
10968;DHT22;5536;49.602;10.980;2023-08-06T11:59:42;20.90;99.90
10968;DHT22;5536;49.602;10.980;2023-08-06T12:02:10;20.20;99.90
10968;DHT22;5536;49.602;10.980;2023-08-06T12:05:00;20.00;99.90
10968;DHT22;5536;49.602;10.980;2023-08-06T12:07:30;21.00;99.90
10968;DHT22;5536;49.602;10.980;2023-08-06T12:09:58;21.50;99.90
10968;DHT22;5536;49.602;10.980;2023-08-06T12:12:25;21.70;99.90
10968;DHT22;5536;49.602;10.980;2023-08-06T12:14:52;21.90;99.90
10968;DHT22;5536;49.602;10.980;2023-08-06T12:17:19;21.10;99.90
10968;DHT22;5536;49.602;10.980;2023-08-06T12:19:47;20.20;99.90
10968;DHT22;5536;49.602;10.980;2023-08-06T12:22:14;19.60;99.90
10968;DHT22;5536;49.602;10.980;2023-08-06T12:24:43;19.20;99.90
10968;DHT22;5536;49.602;10.980;2023-08-06T12:27:10;19.00;99.90
10968;DHT22;5536;49.602;10.980;2023-08-06T12:29:40;18.50;99.90
10968;DHT22;5536;49.602;10.980;2023-08-06T12:32:08;18.10;99.90
10968;DHT22;5536;49.602;10.980;2023-08-06T12:34:34;18.30;99.90
10968;DHT22;5536;49.602;10.980;2023-08-06T12:37:02;18.20;99.90
10968;DHT22;5536;49.602;10.980;2023-08-06T12:39:29;18.60;99.90
10968;DHT22;5536;49.602;10.980;2023-08-06T12:41:58;18.70;99.90
10968;DHT22;5536;49.602;10.980;2023-08-06T12:44:25;19.90;99.90
10968;DHT22;5536;49.602;10.980;2023-08-06T12:46:53;21.20;99.90
10968;DHT22;5536;49.602;10.980;2023-08-06T12:49:21;21.90;99.90
10968;DHT22;5536;49.602;10.980;2023-08-06T12:51:48;22.40;99.90
10968;DHT22;5536;49.602;10.980;2023-08-06T12:54:40;22.40;99.90
10968;DHT22;5536;49.602;10.980;2023-08-06T12:57:26;21.90;99.90
10968;DHT22;5536;49.602;10.980;2023-08-06T12:59:55;22.20;99.90
10968;DHT22;5536;49.602;10.980;2023-08-06T13:02:23;23.20;99.90
10968;DHT22;5536;49.602;10.980;2023-08-06T13:04:51;22.70;99.90
10968;DHT22;5536;49.602;10.980;2023-08-06T13:07:18;22.30;99.90
10968;DHT22;5536;49.602;10.980;2023-08-06T13:09:45;21.90;99.90
10968;DHT22;5536;49.602;10.980;2023-08-06T13:12:12;21.10;99.90
10968;DHT22;5536;49.602;10.980;2023-08-06T13:14:40;20.50;99.90
10968;DHT22;5536;49.602;10.980;2023-08-06T13:17:07;20.50;99.90
10968;DHT22;5536;49.602;10.980;2023-08-06T13:19:35;20.10;99.90
10968;DHT22;5536;49.602;10.980;2023-08-06T13:22:03;19.70;99.90
10968;DHT22;5536;49.602;10.980;2023-08-06T13:24:32;19.30;99.90
10968;DHT22;5536;49.602;10.980;2023-08-06T13:27:00;19.20;99.90
10968;DHT22;5536;49.602;10.980;2023-08-06T13:29:27;18.70;99.90
10968;DHT22;5536;49.602;10.980;2023-08-06T13:31:55;19.00;99.90
10968;DHT22;5536;49.602;10.980;2023-08-06T13:34:22;19.10;99.90
10968;DHT22;5536;49.602;10.980;2023-08-06T13:36:49;19.50;99.90
10968;DHT22;5536;49.602;10.980;2023-08-06T13:39:16;19.50;99.90
10968;DHT22;5536;49.602;10.980;2023-08-06T13:41:44;19.20;99.90
10968;DHT22;5536;49.602;10.980;2023-08-06T13:44:11;18.80;99.90
10968;DHT22;5536;49.602;10.980;2023-08-06T13:46:40;18.60;99.90
10968;DHT22;5536;49.602;10.980;2023-08-06T13:49:10;18.80;99.90
10968;DHT22;5536;49.602;10.980;2023-08-06T13:51:37;19.00;99.90
10968;DHT22;5536;49.602;10.980;2023-08-06T13:54:04;19.10;99.90
10968;DHT22;5536;49.602;10.980;2023-08-06T13:56:32;19.10;99.90
10968;DHT22;5536;49.602;10.980;2023-08-06T13:59:00;18.50;99.90
10968;DHT22;5536;49.602;10.980;2023-08-06T14:01:27;18.00;99.90
10968;DHT22;5536;49.602;10.980;2023-08-06T14:03:54;17.90;99.90
10968;DHT22;5536;49.602;10.980;2023-08-06T14:06:22;17.70;99.90
10968;DHT22;5536;49.602;10.980;2023-08-06T14:08:49;17.70;99.90
10968;DHT22;5536;49.602;10.980;2023-08-06T14:11:16;17.90;99.90
10968;DHT22;5536;49.602;10.980;2023-08-06T14:13:43;17.80;99.90
10968;DHT22;5536;49.602;10.980;2023-08-06T14:16:10;17.50;99.90
10968;DHT22;5536;49.602;10.980;2023-08-06T14:18:37;17.40;99.90
10968;DHT22;5536;49.602;10.980;2023-08-06T14:21:04;17.20;99.90
10968;DHT22;5536;49.602;10.980;2023-08-06T14:23:33;17.20;99.90
10968;DHT22;5536;49.602;10.980;2023-08-06T14:26:00;17.00;99.90
10968;DHT22;5536;49.602;10.980;2023-08-06T14:28:27;16.60;99.90
10968;DHT22;5536;49.602;10.980;2023-08-06T14:30:54;16.50;99.90
10968;DHT22;5536;49.602;10.980;2023-08-06T14:33:21;16.30;99.90
10968;DHT22;5536;49.602;10.980;2023-08-06T14:35:48;16.10;99.90
10968;DHT22;5536;49.602;10.980;2023-08-06T14:38:16;15.90;99.90
10968;DHT22;5536;49.602;10.980;2023-08-06T14:40:45;15.50;99.90
10968;DHT22;5536;49.602;10.980;2023-08-06T14:43:12;15.40;99.90
10968;DHT22;5536;49.602;10.980;2023-08-06T14:45:39;15.50;99.90
10968;DHT22;5536;49.602;10.980;2023-08-06T14:48:06;15.50;99.90
10968;DHT22;5536;49.602;10.980;2023-08-06T14:50:33;15.60;99.90
10968;DHT22;5536;49.602;10.980;2023-08-06T14:53:01;15.70;99.90
10968;DHT22;5536;49.602;10.980;2023-08-06T14:55:30;15.70;99.90
10968;DHT22;5536;49.602;10.980;2023-08-06T14:57:58;15.70;99.90
10968;DHT22;5536;49.602;10.980;2023-08-06T15:00:26;15.70;99.90
10968;DHT22;5536;49.602;10.980;2023-08-06T15:02:53;15.70;99.90
10968;DHT22;5536;49.602;10.980;2023-08-06T15:05:20;15.60;99.90
10968;DHT22;5536;49.602;10.980;2023-08-06T15:07:47;15.60;99.90
10968;DHT22;5536;49.602;10.980;2023-08-06T15:10:15;15.60;99.90
10968;DHT22;5536;49.602;10.980;2023-08-06T15:12:42;15.60;99.90
10968;DHT22;5536;49.602;10.980;2023-08-06T15:15:11;15.50;99.90
10968;DHT22;5536;49.602;10.980;2023-08-06T15:17:38;15.50;99.90
10968;DHT22;5536;49.602;10.980;2023-08-06T15:20:07;15.50;99.90
10968;DHT22;5536;49.602;10.980;2023-08-06T15:22:34;15.50;99.90
10968;DHT22;5536;49.602;10.980;2023-08-06T15:25:01;15.50;99.90
10968;DHT22;5536;49.602;10.980;2023-08-06T15:27:29;15.50;99.90
10968;DHT22;5536;49.602;10.980;2023-08-06T15:29:57;15.50;99.90
10968;DHT22;5536;49.602;10.980;2023-08-06T15:32:26;15.50;99.90
10968;DHT22;5536;49.602;10.980;2023-08-06T15:34:53;15.60;99.90